createdAt,value
2017-07-29T00:00:39.178Z,19.30
2017-07-29T00:03:06.259Z,19.30
2017-07-29T00:05:32.701Z,19.30
2017-07-29T00:07:59.060Z,19.30
2017-07-29T00:10:25.542Z,19.20
2017-07-29T00:12:51.923Z,19.20
2017-07-29T00:15:18.304Z,19.20
2017-07-29T00:17:45.396Z,19.10
2017-07-29T00:20:11.833Z,19.10
2017-07-29T00:22:38.173Z,19.10
2017-07-29T00:25:04.514Z,19.00
2017-07-29T00:27:31.033Z,19.10
2017-07-29T00:29:57.485Z,19.00
2017-07-29T00:32:23.875Z,19.00
2017-07-29T00:34:50.317Z,19.00
2017-07-29T00:37:16.783Z,19.00
2017-07-29T00:39:43.246Z,19.00
2017-07-29T00:42:10.483Z,18.90
2017-07-29T00:44:37.768Z,18.90
2017-07-29T00:47:04.266Z,18.90
2017-07-29T00:49:30.786Z,18.90
2017-07-29T00:51:57.236Z,18.90
2017-07-29T00:54:23.603Z,18.90
2017-07-29T00:56:49.923Z,18.90
2017-07-29T00:59:16.667Z,18.90
2017-07-29T01:01:43.106Z,18.90
2017-07-29T01:04:09.433Z,18.90
2017-07-29T01:06:35.802Z,18.80
2017-07-29T01:09:02.249Z,18.80
2017-07-29T01:11:28.647Z,18.90
2017-07-29T01:13:55.221Z,18.90
2017-07-29T01:16:21.572Z,18.80
2017-07-29T01:18:48.717Z,18.80
2017-07-29T01:21:15.092Z,18.80
2017-07-29T01:23:41.448Z,18.80
2017-07-29T01:26:07.839Z,18.80
2017-07-29T01:28:34.285Z,18.70
2017-07-29T01:31:00.710Z,18.80
2017-07-29T01:33:27.958Z,18.80
2017-07-29T01:35:54.833Z,18.70
2017-07-29T01:38:21.310Z,18.70
2017-07-29T01:40:48.460Z,18.70
2017-07-29T01:43:15.656Z,18.70
2017-07-29T01:45:42.167Z,18.70
2017-07-29T01:48:08.589Z,18.70
2017-07-29T01:50:35.729Z,18.60
2017-07-29T01:53:02.845Z,18.60
2017-07-29T01:55:29.370Z,18.60
2017-07-29T01:57:55.821Z,18.60
2017-07-29T02:00:22.364Z,18.60
2017-07-29T02:02:49.149Z,18.60
2017-07-29T02:05:15.491Z,18.60
2017-07-29T02:07:41.918Z,18.70
2017-07-29T02:10:08.316Z,18.70
2017-07-29T02:12:34.770Z,18.70
2017-07-29T02:15:01.961Z,18.60
2017-07-29T02:17:28.315Z,18.70
2017-07-29T02:19:54.773Z,18.60
2017-07-29T02:22:21.091Z,18.70
2017-07-29T02:24:47.455Z,18.60
2017-07-29T02:27:14.169Z,18.60
2017-07-29T02:29:40.545Z,18.60
2017-07-29T02:32:07.463Z,18.60
2017-07-29T02:34:34.021Z,18.60
2017-07-29T02:37:00.444Z,18.50
2017-07-29T02:39:26.947Z,18.50
2017-07-29T02:41:54.116Z,18.40
2017-07-29T02:44:21.474Z,18.50
2017-07-29T02:46:47.856Z,18.40
2017-07-29T02:49:14.287Z,18.40
2017-07-29T02:51:40.724Z,18.40
2017-07-29T02:54:07.366Z,18.30
2017-07-29T02:56:33.747Z,18.30
2017-07-29T02:59:00.137Z,18.30
2017-07-29T03:01:26.554Z,18.20
2017-07-29T03:03:52.917Z,18.20
2017-07-29T03:06:19.539Z,18.10
2017-07-29T03:08:46.085Z,18.10
2017-07-29T03:11:12.477Z,18.10
2017-07-29T03:13:38.971Z,18.10
2017-07-29T03:16:05.388Z,18.10
2017-07-29T03:18:33.809Z,18.00
2017-07-29T03:21:00.217Z,18.00
2017-07-29T03:23:29.557Z,18.00
2017-07-29T03:25:55.992Z,17.90
2017-07-29T03:28:22.347Z,17.90
2017-07-29T03:30:49.662Z,17.90
2017-07-29T03:33:17.678Z,17.90
2017-07-29T03:35:44.451Z,17.90
2017-07-29T03:38:11.906Z,17.80
2017-07-29T03:40:39.014Z,17.80
2017-07-29T03:43:05.389Z,17.80
2017-07-29T03:45:32.460Z,17.70
2017-07-29T03:47:58.878Z,17.70
2017-07-29T03:50:25.196Z,17.70
2017-07-29T03:52:53.632Z,17.70
2017-07-29T03:55:21.209Z,17.60
2017-07-29T03:57:47.717Z,17.60
2017-07-29T04:00:14.183Z,17.60
2017-07-29T04:02:40.849Z,17.60
2017-07-29T04:05:07.309Z,17.60
2017-07-29T04:07:33.905Z,17.70
2017-07-29T04:10:01.471Z,17.70
2017-07-29T04:12:28.662Z,17.70
2017-07-29T04:14:55.241Z,17.70
2017-07-29T04:17:21.751Z,17.70
2017-07-29T04:19:48.158Z,17.70
2017-07-29T04:22:14.579Z,17.70
2017-07-29T04:24:41.034Z,17.70
2017-07-29T04:27:07.863Z,17.70
2017-07-29T04:29:34.258Z,17.70
2017-07-29T04:32:01.504Z,17.70
2017-07-29T04:34:27.936Z,17.70
2017-07-29T04:36:54.600Z,17.70
2017-07-29T04:39:21.632Z,17.70
2017-07-29T04:41:48.793Z,17.70
2017-07-29T04:44:15.173Z,17.70
2017-07-29T04:46:42.687Z,17.70
2017-07-29T04:49:09.087Z,17.80
2017-07-29T04:51:35.476Z,17.80
2017-07-29T04:54:01.951Z,17.80
2017-07-29T04:56:28.281Z,17.80
2017-07-29T04:58:54.663Z,17.80
2017-07-29T05:01:21.136Z,17.80
2017-07-29T05:03:47.655Z,17.80
2017-07-29T05:06:14.321Z,17.90
2017-07-29T05:08:40.889Z,17.80
2017-07-29T05:11:08.141Z,17.90
2017-07-29T05:13:35.476Z,17.90
2017-07-29T05:16:02.687Z,17.90
2017-07-29T05:18:29.236Z,17.90
2017-07-29T05:20:55.733Z,18.00
2017-07-29T05:23:22.078Z,18.00
2017-07-29T05:25:48.506Z,18.00
2017-07-29T05:28:16.285Z,18.10
2017-07-29T05:30:42.738Z,18.10
2017-07-29T05:33:09.212Z,18.10
2017-07-29T05:35:35.583Z,18.20
2017-07-29T05:38:01.924Z,18.20
2017-07-29T05:40:28.846Z,18.20
2017-07-29T05:42:55.780Z,18.30
2017-07-29T05:45:22.222Z,18.30
2017-07-29T05:47:48.820Z,18.40
2017-07-29T05:50:16.011Z,18.40
2017-07-29T05:52:42.401Z,18.50
2017-07-29T05:55:09.002Z,18.50
2017-07-29T05:57:35.668Z,18.50
2017-07-29T06:00:02.171Z,18.60
2017-07-29T06:02:28.800Z,18.60
2017-07-29T06:04:55.193Z,18.70
2017-07-29T06:07:22.349Z,18.80
2017-07-29T06:09:48.912Z,18.70
2017-07-29T06:12:15.278Z,18.80
2017-07-29T06:14:41.718Z,18.90
2017-07-29T06:17:08.189Z,18.90
2017-07-29T06:19:34.607Z,19.00
2017-07-29T06:22:01.744Z,19.20
2017-07-29T06:24:28.217Z,19.20
2017-07-29T06:26:54.719Z,19.20
2017-07-29T06:29:21.965Z,19.40
2017-07-29T06:31:48.522Z,19.40
2017-07-29T06:34:15.070Z,19.50
2017-07-29T06:36:41.468Z,19.50
2017-07-29T06:41:41.202Z,19.70
2017-07-29T06:44:15.418Z,19.80
2017-07-29T06:46:42.674Z,19.80
2017-07-29T06:49:09.943Z,19.90
2017-07-29T06:51:36.325Z,19.90
2017-07-29T06:54:02.761Z,20.00
2017-07-29T06:56:29.164Z,20.00
2017-07-29T06:58:55.712Z,20.10
2017-07-29T07:01:22.281Z,20.10
2017-07-29T07:03:48.789Z,20.20
2017-07-29T07:06:15.290Z,20.20
2017-07-29T07:08:41.717Z,20.30
2017-07-29T07:11:08.126Z,20.30
2017-07-29T07:13:35.389Z,20.40
2017-07-29T07:16:02.527Z,20.50
2017-07-29T07:18:29.970Z,20.50
2017-07-29T07:20:56.346Z,20.50
2017-07-29T07:23:22.827Z,20.50
2017-07-29T07:25:49.313Z,20.60
2017-07-29T07:28:15.941Z,20.60
2017-07-29T07:30:42.503Z,20.60
2017-07-29T07:33:09.798Z,20.70
2017-07-29T07:35:36.205Z,20.60
2017-07-29T07:38:02.612Z,20.70
2017-07-29T07:40:29.041Z,20.70
2017-07-29T07:42:55.505Z,20.70
2017-07-29T07:45:21.968Z,20.80
2017-07-29T07:47:48.378Z,20.80
2017-07-29T07:50:14.800Z,20.90
2017-07-29T07:52:41.244Z,20.90
2017-07-29T07:55:07.725Z,20.90
2017-07-29T07:57:34.982Z,21.00
2017-07-29T08:00:01.602Z,21.00
2017-07-29T08:02:28.184Z,21.00
2017-07-29T08:04:54.635Z,21.10
2017-07-29T08:07:21.079Z,21.10
2017-07-29T08:09:47.482Z,21.20
2017-07-29T08:12:13.881Z,21.20
2017-07-29T08:14:41.154Z,21.40
2017-07-29T08:17:07.704Z,21.40
2017-07-29T08:19:34.369Z,21.40
2017-07-29T08:22:00.769Z,21.50
2017-07-29T08:24:27.130Z,21.50
2017-07-29T08:26:53.554Z,21.50
2017-07-29T08:29:19.930Z,21.60
2017-07-29T08:31:47.394Z,21.80
2017-07-29T08:34:14.602Z,21.80
2017-07-29T08:36:41.053Z,21.80
2017-07-29T08:39:07.510Z,21.90
2017-07-29T08:41:34.643Z,22.10
2017-07-29T08:44:01.044Z,22.00
2017-07-29T08:46:27.669Z,22.10
2017-07-29T08:48:54.199Z,22.20
2017-07-29T08:51:20.676Z,22.20
2017-07-29T08:53:47.184Z,22.30
2017-07-29T08:56:13.572Z,22.30
2017-07-29T08:58:40.737Z,22.40
2017-07-29T09:01:07.120Z,22.40
2017-07-29T09:03:33.522Z,22.50
2017-07-29T09:05:59.945Z,22.50
2017-07-29T09:08:26.582Z,22.60
2017-07-29T09:10:53.101Z,22.70
2017-07-29T09:13:19.513Z,22.80
2017-07-29T09:15:46.065Z,22.80
2017-07-29T09:18:12.500Z,22.90
2017-07-29T09:20:38.884Z,23.00
2017-07-29T09:23:05.260Z,23.10
2017-07-29T09:25:31.714Z,23.10
2017-07-29T09:27:58.200Z,23.20
2017-07-29T09:30:24.679Z,23.20
2017-07-29T09:32:51.186Z,23.30
2017-07-29T09:35:17.640Z,23.30
2017-07-29T09:37:44.087Z,23.30
2017-07-29T09:40:10.511Z,23.40
2017-07-29T09:42:36.893Z,23.40
2017-07-29T09:45:03.677Z,23.40
2017-07-29T09:47:30.608Z,23.50
2017-07-29T09:49:57.747Z,23.60
2017-07-29T09:52:24.168Z,23.60
2017-07-29T09:54:51.666Z,23.60
2017-07-29T09:57:18.093Z,23.70
2017-07-29T09:59:45.269Z,23.80
2017-07-29T10:02:11.608Z,23.80
2017-07-29T10:04:37.932Z,23.80
2017-07-29T10:07:04.309Z,23.90
2017-07-29T10:09:30.661Z,23.90
2017-07-29T10:11:58.278Z,24.00
2017-07-29T10:14:24.775Z,24.00
2017-07-29T10:16:51.265Z,24.10
2017-07-29T10:19:17.722Z,24.10
2017-07-29T10:21:44.844Z,24.30
2017-07-29T10:24:11.812Z,24.30
2017-07-29T10:26:38.254Z,24.30
2017-07-29T10:29:05.365Z,24.50
2017-07-29T10:31:31.796Z,24.40
2017-07-29T10:33:58.182Z,24.50
2017-07-29T10:36:24.690Z,24.60
2017-07-29T10:38:51.187Z,24.60
2017-07-29T10:41:17.705Z,24.70
2017-07-29T10:43:44.130Z,24.70
2017-07-29T10:46:10.583Z,24.80
2017-07-29T10:48:36.956Z,24.80
2017-07-29T10:51:03.387Z,24.80
2017-07-29T10:53:29.791Z,24.90
2017-07-29T10:55:56.386Z,24.80
2017-07-29T10:58:22.883Z,24.90
2017-07-29T11:00:49.308Z,24.90
2017-07-29T11:03:15.783Z,25.00
2017-07-29T11:05:42.280Z,25.00
2017-07-29T11:08:08.745Z,25.00
2017-07-29T11:10:35.957Z,25.10
2017-07-29T11:13:02.422Z,25.10
2017-07-29T11:15:29.934Z,25.10
2017-07-29T11:17:56.323Z,25.10
2017-07-29T11:20:23.495Z,25.20
2017-07-29T11:22:49.924Z,25.10
2017-07-29T11:25:16.323Z,25.30
2017-07-29T11:27:42.750Z,25.30
2017-07-29T11:30:09.242Z,25.40
2017-07-29T11:32:35.646Z,25.40
2017-07-29T11:35:02.034Z,25.50
2017-07-29T11:37:28.461Z,25.50
2017-07-29T11:39:54.871Z,25.60
2017-07-29T11:42:21.260Z,25.60
2017-07-29T11:44:48.507Z,25.70
2017-07-29T11:47:14.950Z,25.70
2017-07-29T11:49:42.132Z,25.80
2017-07-29T11:52:08.620Z,25.80
2017-07-29T11:54:35.078Z,25.80
2017-07-29T11:57:01.440Z,25.80
2017-07-29T11:59:27.771Z,25.80
2017-07-29T12:01:54.125Z,25.80
2017-07-29T12:04:20.448Z,25.80
2017-07-29T12:06:46.826Z,25.80
2017-07-29T12:09:13.945Z,25.90
2017-07-29T12:11:40.397Z,25.90
2017-07-29T12:14:06.821Z,26.00
2017-07-29T12:16:33.140Z,25.90
2017-07-29T12:18:59.514Z,25.90
2017-07-29T12:21:25.834Z,25.80
2017-07-29T12:23:52.916Z,25.80
2017-07-29T12:26:19.251Z,25.80
2017-07-29T12:28:45.621Z,25.80
2017-07-29T12:31:11.938Z,25.80
2017-07-29T12:33:38.292Z,25.80
2017-07-29T12:36:04.632Z,25.80
2017-07-29T12:38:31.725Z,25.90
2017-07-29T12:40:58.802Z,25.90
2017-07-29T12:43:26.481Z,26.00
2017-07-29T12:45:53.236Z,26.00
2017-07-29T12:48:20.405Z,26.00
2017-07-29T12:53:44.484Z,26.10
2017-07-29T12:56:17.280Z,26.10
2017-07-29T12:58:45.432Z,26.20
2017-07-29T13:01:11.796Z,26.20
2017-07-29T13:03:38.133Z,26.20
2017-07-29T13:06:04.485Z,26.20
2017-07-29T13:08:30.811Z,26.30
2017-07-29T13:10:57.164Z,26.30
2017-07-29T13:13:23.570Z,26.30
2017-07-29T13:15:49.953Z,26.40
2017-07-29T13:18:16.296Z,26.40
2017-07-29T13:20:43.397Z,26.50
2017-07-29T13:23:09.748Z,26.40
2017-07-29T13:25:36.107Z,26.50
2017-07-29T13:28:03.183Z,26.50
2017-07-29T13:30:29.540Z,26.50
2017-07-29T13:32:55.876Z,26.50
2017-07-29T13:35:22.232Z,26.30
2017-07-29T13:37:48.564Z,26.40
2017-07-29T13:40:14.922Z,26.40
2017-07-29T13:42:42.012Z,26.40
2017-07-29T13:45:08.392Z,26.40
2017-07-29T13:47:42.412Z,26.40
2017-07-29T13:50:09.548Z,26.50
2017-07-29T13:52:36.853Z,26.50
2017-07-29T13:55:03.258Z,26.50
2017-07-29T13:57:29.946Z,26.50
2017-07-29T13:59:56.279Z,26.50
2017-07-29T14:02:22.634Z,26.50
2017-07-29T14:04:49.072Z,26.50
2017-07-29T14:07:16.173Z,26.50
2017-07-29T14:09:42.520Z,26.50
2017-07-29T14:12:08.860Z,26.50
2017-07-29T14:14:35.214Z,26.50
2017-07-29T14:17:01.567Z,26.50
2017-07-29T14:19:27.894Z,26.60
2017-07-29T14:21:54.261Z,26.60
2017-07-29T14:24:20.804Z,26.70
2017-07-29T14:26:47.135Z,26.60
2017-07-29T14:29:13.537Z,26.60
2017-07-29T14:31:39.883Z,26.60
2017-07-29T14:34:06.249Z,26.60
2017-07-29T14:36:32.868Z,26.60
2017-07-29T14:38:59.227Z,26.70
2017-07-29T14:41:25.812Z,26.70
2017-07-29T14:43:52.168Z,26.70
2017-07-29T14:46:18.498Z,26.70
2017-07-29T14:48:44.853Z,26.70
2017-07-29T14:51:11.184Z,26.70
2017-07-29T14:53:37.559Z,26.70
2017-07-29T14:56:03.897Z,26.70
2017-07-29T14:58:30.282Z,26.70
2017-07-29T15:00:57.364Z,26.70
2017-07-29T15:03:23.709Z,26.70
2017-07-29T15:05:50.094Z,26.80
2017-07-29T15:08:16.423Z,26.80
2017-07-29T15:10:42.793Z,26.80
2017-07-29T15:13:09.123Z,26.80
2017-07-29T15:15:35.483Z,26.80
2017-07-29T15:18:01.820Z,26.80
2017-07-29T15:20:28.178Z,26.80
2017-07-29T15:22:54.720Z,26.80
2017-07-29T15:25:21.066Z,26.80
2017-07-29T15:27:48.143Z,26.70
2017-07-29T15:30:14.515Z,26.70
2017-07-29T15:32:40.856Z,26.70
2017-07-29T15:35:07.204Z,26.70
2017-07-29T15:37:34.273Z,26.70
2017-07-29T15:40:00.647Z,26.60
2017-07-29T15:42:26.981Z,26.60
2017-07-29T15:44:53.323Z,26.60
2017-07-29T15:47:19.678Z,26.60
2017-07-29T15:49:46.764Z,26.60
2017-07-29T15:52:13.115Z,26.50
2017-07-29T15:54:39.462Z,26.60
2017-07-29T15:57:05.829Z,26.50
2017-07-29T15:59:32.173Z,26.50
2017-07-29T16:01:58.537Z,26.50
2017-07-29T16:04:24.899Z,26.50
2017-07-29T16:06:51.267Z,26.50
2017-07-29T16:09:18.271Z,26.50
2017-07-29T16:11:44.627Z,26.50
2017-07-29T16:14:11.163Z,26.50
2017-07-29T16:16:37.524Z,26.40
2017-07-29T16:19:03.852Z,26.40
2017-07-29T16:21:30.181Z,26.40
2017-07-29T16:23:56.541Z,26.30
2017-07-29T16:26:22.876Z,26.30
2017-07-29T16:28:49.250Z,26.30
2017-07-29T16:31:16.555Z,26.20
2017-07-29T16:33:42.912Z,26.20
2017-07-29T16:36:09.288Z,26.10
2017-07-29T16:38:35.672Z,26.10
2017-07-29T16:41:02.385Z,26.10
2017-07-29T16:43:28.765Z,26.10
2017-07-29T16:45:55.833Z,26.00
2017-07-29T16:48:22.362Z,26.00
2017-07-29T16:50:48.689Z,26.00
2017-07-29T16:53:15.826Z,26.00
2017-07-29T16:55:42.264Z,25.90
2017-07-29T16:58:09.338Z,25.80
2017-07-29T17:00:35.684Z,25.80
2017-07-29T17:03:02.107Z,25.80
2017-07-29T17:05:28.500Z,25.80
2017-07-29T17:07:55.625Z,25.70
2017-07-29T17:10:21.976Z,25.70
2017-07-29T17:12:48.321Z,25.70
2017-07-29T17:15:15.423Z,25.60
2017-07-29T17:17:41.800Z,25.60
2017-07-29T17:20:08.896Z,25.60
2017-07-29T17:22:35.233Z,25.60
2017-07-29T17:25:01.623Z,25.60
2017-07-29T17:27:28.077Z,25.50
2017-07-29T17:29:54.600Z,25.50
2017-07-29T17:32:21.035Z,25.50
2017-07-29T17:34:47.507Z,25.50
2017-07-29T17:37:13.836Z,25.50
2017-07-29T17:39:40.206Z,25.50
2017-07-29T17:42:07.323Z,25.50
2017-07-29T17:44:33.683Z,25.40
2017-07-29T17:47:00.119Z,25.50
2017-07-29T17:49:27.512Z,25.40
2017-07-29T17:51:54.206Z,25.40
2017-07-29T17:54:20.541Z,25.40
2017-07-29T17:56:46.915Z,25.40
2017-07-29T17:59:13.270Z,25.40
2017-07-29T18:01:39.645Z,25.40
2017-07-29T18:04:06.817Z,25.30
2017-07-29T18:06:33.200Z,25.30
2017-07-29T18:08:59.621Z,25.40
2017-07-29T18:11:26.059Z,25.30
2017-07-29T18:13:52.591Z,25.30
2017-07-29T18:16:19.041Z,25.30
2017-07-29T18:18:45.408Z,25.30
2017-07-29T18:21:11.800Z,25.30
2017-07-29T18:23:39.410Z,25.20
2017-07-29T18:26:06.391Z,25.20
2017-07-29T18:28:32.760Z,25.20
2017-07-29T18:30:59.829Z,25.10
2017-07-29T18:33:33.312Z,25.20
2017-07-29T18:36:00.603Z,25.10
2017-07-29T18:38:27.015Z,25.10
2017-07-29T18:40:53.337Z,25.10
2017-07-29T18:43:19.844Z,25.10
2017-07-29T18:45:46.283Z,25.10
2017-07-29T18:48:13.381Z,25.00
2017-07-29T18:50:39.711Z,25.00
2017-07-29T18:53:06.050Z,25.00
2017-07-29T18:55:32.364Z,25.00
2017-07-29T18:57:58.680Z,25.00
2017-07-29T19:00:25.564Z,24.90
2017-07-29T19:02:51.903Z,24.90
2017-07-29T19:05:18.247Z,24.90
2017-07-29T19:07:44.653Z,24.90
2017-07-29T19:10:11.019Z,24.80
2017-07-29T19:12:37.409Z,24.80
2017-07-29T19:15:03.792Z,24.70
2017-07-29T19:17:31.236Z,24.70
2017-07-29T19:19:57.605Z,24.70
2017-07-29T19:22:24.008Z,24.70
2017-07-29T19:24:51.095Z,24.60
2017-07-29T19:27:17.483Z,24.50
2017-07-29T19:29:43.941Z,24.50
2017-07-29T19:32:10.316Z,24.50
2017-07-29T19:34:36.634Z,24.40
2017-07-29T19:37:03.025Z,24.40
2017-07-29T19:39:30.096Z,24.30
2017-07-29T19:41:56.435Z,24.30
2017-07-29T19:44:22.797Z,24.20
2017-07-29T19:46:49.194Z,24.20
2017-07-29T19:49:15.526Z,24.10
2017-07-29T19:51:41.884Z,24.10
2017-07-29T19:54:08.227Z,24.00
2017-07-29T19:56:34.625Z,23.90
2017-07-29T19:59:00.948Z,23.90
2017-07-29T20:01:27.345Z,23.80
2017-07-29T20:03:54.475Z,23.70
2017-07-29T20:06:20.808Z,23.70
2017-07-29T20:08:47.226Z,23.60
2017-07-29T20:11:13.551Z,23.60
2017-07-29T20:13:39.889Z,23.60
2017-07-29T20:16:06.294Z,23.50
2017-07-29T20:18:32.720Z,23.50
2017-07-29T20:20:59.037Z,23.40
2017-07-29T20:23:25.438Z,23.40
2017-07-29T20:28:24.941Z,23.30
2017-07-29T20:30:51.345Z,23.30
2017-07-29T20:33:17.728Z,23.20
2017-07-29T20:35:44.119Z,23.20
2017-07-29T20:38:10.469Z,23.20
2017-07-29T20:40:36.801Z,23.10
2017-07-29T20:43:03.146Z,23.10
2017-07-29T20:45:29.636Z,23.00
2017-07-29T20:47:55.983Z,23.00
2017-07-29T20:50:22.344Z,23.00
2017-07-29T20:52:48.686Z,22.90
2017-07-29T20:55:15.793Z,22.90
2017-07-29T20:57:42.254Z,22.80
2017-07-29T21:00:08.654Z,22.80
2017-07-29T21:02:35.141Z,22.80
2017-07-29T21:05:01.635Z,22.80
2017-07-29T21:07:28.402Z,22.80
2017-07-29T21:09:55.124Z,22.70
2017-07-29T21:12:21.660Z,22.70
2017-07-29T21:14:48.041Z,22.60
2017-07-29T21:17:14.387Z,22.60
2017-07-29T21:19:41.284Z,22.50
2017-07-29T21:22:07.818Z,22.50
2017-07-29T21:24:34.248Z,22.40
2017-07-29T21:27:00.665Z,22.40
2017-07-29T21:29:27.067Z,22.30
2017-07-29T21:31:53.472Z,22.30
2017-07-29T21:34:20.592Z,22.20
2017-07-29T21:36:46.921Z,22.20
2017-07-29T21:39:13.297Z,22.20
2017-07-29T21:41:39.668Z,22.20
2017-07-29T21:44:06.164Z,22.10
2017-07-29T21:46:32.609Z,22.10
2017-07-29T21:48:58.999Z,22.10
2017-07-29T21:51:25.400Z,22.00
2017-07-29T21:53:51.801Z,22.00
2017-07-29T21:56:18.258Z,22.00
2017-07-29T21:58:44.680Z,21.90
2017-07-29T22:01:11.144Z,21.90
2017-07-29T22:03:37.564Z,21.90
2017-07-29T22:06:03.956Z,21.90
2017-07-29T22:08:30.453Z,21.90
2017-07-29T22:10:56.788Z,21.90
2017-07-29T22:13:23.193Z,21.90
2017-07-29T22:15:49.700Z,21.90
2017-07-29T22:18:16.107Z,21.80
2017-07-29T22:20:43.160Z,21.80
2017-07-29T22:23:10.327Z,21.80
2017-07-29T22:25:36.780Z,21.80
2017-07-29T22:28:03.120Z,21.80
2017-07-29T22:30:29.473Z,21.80
2017-07-29T22:32:55.841Z,21.80
2017-07-29T22:35:22.263Z,21.80
2017-07-29T22:37:49.395Z,21.80
2017-07-29T22:40:15.971Z,21.70
2017-07-29T22:42:42.633Z,21.80
2017-07-29T22:45:09.137Z,21.80
2017-07-29T22:47:35.640Z,21.80
2017-07-29T22:50:02.798Z,21.80
2017-07-29T22:52:29.274Z,21.80
2017-07-29T22:54:55.733Z,21.80
2017-07-29T22:57:22.987Z,21.80
2017-07-29T22:59:49.386Z,21.80
2017-07-29T23:02:15.756Z,21.80
2017-07-29T23:04:42.141Z,21.80
2017-07-29T23:07:08.523Z,21.80
2017-07-29T23:09:34.858Z,21.80
2017-07-29T23:12:01.226Z,21.80
2017-07-29T23:14:27.613Z,21.80
2017-07-29T23:16:54.022Z,21.90
2017-07-29T23:19:20.395Z,21.90
2017-07-29T23:21:46.769Z,21.90
2017-07-29T23:24:13.173Z,21.90
2017-07-29T23:26:40.288Z,21.90
2017-07-29T23:29:06.676Z,21.80
2017-07-29T23:31:33.049Z,21.90
2017-07-29T23:33:59.364Z,21.90
2017-07-29T23:36:25.752Z,21.90
2017-07-29T23:38:52.836Z,21.90
2017-07-29T23:41:19.205Z,21.80
2017-07-29T23:43:45.690Z,21.80
2017-07-29T23:46:12.028Z,21.80
2017-07-29T23:48:38.370Z,21.80
2017-07-29T23:51:04.761Z,21.80
2017-07-29T23:53:31.852Z,21.80
2017-07-29T23:55:58.497Z,21.80
2017-07-29T23:58:24.812Z,21.80
